createdAt,value
2018-06-08T00:00:54.862Z,996.63
2018-06-08T00:02:04.670Z,996.64
2018-06-08T00:03:14.755Z,996.61
2018-06-08T00:04:24.570Z,996.58
2018-06-08T00:05:34.638Z,996.57
2018-06-08T00:06:44.808Z,996.52
2018-06-08T00:07:54.615Z,996.5
2018-06-08T00:09:04.702Z,996.52
2018-06-08T00:10:14.784Z,996.47
2018-06-08T00:11:24.861Z,996.45
2018-06-08T00:12:34.915Z,996.41
2018-06-08T00:13:44.998Z,996.43
2018-06-08T00:14:54.812Z,996.38
2018-06-08T00:16:04.890Z,996.34
2018-06-08T00:17:14.974Z,996.36
2018-06-08T00:18:25.057Z,996.31
2018-06-08T00:19:35.135Z,996.32
2018-06-08T00:20:45.226Z,996.35
2018-06-08T00:21:55.071Z,996.37
2018-06-08T00:23:05.168Z,996.33
2018-06-08T00:24:15.249Z,996.35
2018-06-08T00:25:25.352Z,996.33
2018-06-08T00:26:35.453Z,996.31
2018-06-08T00:27:45.531Z,996.32
2018-06-08T00:28:55.616Z,996.3
2018-06-08T00:30:05.681Z,996.27
2018-06-08T00:31:15.790Z,996.35
2018-06-08T00:32:25.352Z,996.35
2018-06-08T00:33:35.185Z,996.27
2018-06-08T00:34:45.266Z,996.28
2018-06-08T00:35:55.328Z,996.28
2018-06-08T00:37:05.407Z,996.27
2018-06-08T00:38:15.226Z,996.27
2018-06-08T00:39:25.310Z,996.23
2018-06-08T00:40:35.397Z,996.26
2018-06-08T00:41:45.501Z,996.25
2018-06-08T00:42:55.572Z,996.24
2018-06-08T00:44:05.646Z,996.22
2018-06-08T00:45:15.455Z,996.2
2018-06-08T00:46:26.105Z,996.2
2018-06-08T00:47:36.169Z,996.19
2018-06-08T00:48:46.238Z,996.16
2018-06-08T00:49:56.303Z,996.15
2018-06-08T00:51:06.373Z,996.13
2018-06-08T00:52:16.446Z,996.1
2018-06-08T00:53:26.507Z,996.12
2018-06-08T00:54:36.573Z,996.12
2018-06-08T00:55:46.648Z,996.11
2018-06-08T00:56:56.739Z,996.11
2018-06-08T00:58:06.568Z,996.09
2018-06-08T00:59:16.641Z,996.12
2018-06-08T01:00:26.448Z,996.08
2018-06-08T01:01:36.533Z,996.08
2018-06-08T01:02:46.611Z,996.1
2018-06-08T01:03:56.695Z,996.09
2018-06-08T01:05:06.534Z,996.1
2018-06-08T01:06:16.332Z,996.09
2018-06-08T01:07:26.460Z,996.11
2018-06-08T01:08:36.534Z,996.13
2018-06-08T01:09:46.337Z,996.06
2018-06-08T01:10:55.885Z,996.08
2018-06-08T01:12:06.059Z,996.05
2018-06-08T01:13:16.143Z,996.11
2018-06-08T01:14:26.239Z,996.09
2018-06-08T01:15:36.308Z,996.07
2018-06-08T01:16:46.119Z,996.12
2018-06-08T01:17:55.968Z,996.07
2018-06-08T01:19:06.031Z,996.13
2018-06-08T01:20:16.119Z,996.13
2018-06-08T01:21:25.684Z,996.17
2018-06-08T01:22:35.804Z,996.18
2018-06-08T01:23:45.953Z,996.19
2018-06-08T01:24:55.756Z,996.21
2018-06-08T01:26:05.831Z,996.19
2018-06-08T01:27:15.893Z,996.2
2018-06-08T01:28:26.025Z,996.21
2018-06-08T01:29:35.828Z,996.23
2018-06-08T01:30:45.923Z,996.15
2018-06-08T01:31:55.747Z,996.17
2018-06-08T01:33:05.877Z,996.15
2018-06-08T01:34:15.983Z,996.14
2018-06-08T01:35:26.054Z,996.13
2018-06-08T01:36:36.119Z,996.11
2018-06-08T01:37:46.200Z,996.12
2018-06-08T01:38:56.280Z,996.07
2018-06-08T01:40:06.354Z,996.09
2018-06-08T01:41:16.439Z,996.08
2018-06-08T01:42:26.513Z,996.08
2018-06-08T01:43:36.617Z,996.11
2018-06-08T01:44:46.692Z,996.04
2018-06-08T01:45:56.776Z,996.08
2018-06-08T01:47:06.608Z,996.07
2018-06-08T01:48:16.675Z,996.07
2018-06-08T01:49:26.761Z,996.07
2018-06-08T01:50:36.887Z,996.08
2018-06-08T01:51:46.963Z,996.05
2018-06-08T01:52:57.032Z,996.08
2018-06-08T01:54:07.097Z,996.02
2018-06-08T01:55:17.175Z,996.04
2018-06-08T01:56:26.992Z,996.06
2018-06-08T01:57:37.072Z,996.04
2018-06-08T01:58:47.139Z,996.03
2018-06-08T01:59:57.230Z,996.04
2018-06-08T02:01:07.294Z,996.02
2018-06-08T02:02:17.370Z,996.04
2018-06-08T02:03:27.457Z,996.03
2018-06-08T02:04:36.998Z,996.03
2018-06-08T02:05:46.810Z,996.06
2018-06-08T02:06:56.907Z,996.11
2018-06-08T02:08:06.982Z,996.06
2018-06-08T02:09:17.036Z,996.1
2018-06-08T02:10:27.124Z,996.1
2018-06-08T02:11:36.948Z,996.12
2018-06-08T02:12:46.771Z,996.14
2018-06-08T02:13:56.844Z,996.15
2018-06-08T02:15:06.928Z,996.17
2018-06-08T02:16:16.756Z,996.18
2018-06-08T02:17:26.832Z,996.16
2018-06-08T02:18:36.904Z,996.16
2018-06-08T02:19:46.986Z,996.14
2018-06-08T02:20:57.056Z,996.19
2018-06-08T02:22:06.864Z,996.13
2018-06-08T02:23:16.681Z,996.13
2018-06-08T02:24:26.760Z,996.13
2018-06-08T02:25:36.884Z,996.11
2018-06-08T02:26:46.965Z,996.11
2018-06-08T02:27:57.033Z,996.1
2018-06-08T02:29:07.111Z,996.07
2018-06-08T02:30:16.914Z,996.08
2018-06-08T02:31:27.008Z,996.08
2018-06-08T02:32:37.113Z,996.05
2018-06-08T02:33:47.188Z,996.04
2018-06-08T02:34:57.262Z,996.09
2018-06-08T02:36:07.086Z,996.09
2018-06-08T02:37:17.162Z,996.08
2018-06-08T02:38:27.257Z,996.08
2018-06-08T02:39:37.334Z,996.12
2018-06-08T02:40:47.153Z,996.08
2018-06-08T02:41:57.240Z,996.12
2018-06-08T02:43:07.049Z,996.13
2018-06-08T02:44:16.842Z,996.16
2018-06-08T02:45:26.914Z,996.17
2018-06-08T02:46:37.010Z,996.16
2018-06-08T02:47:47.090Z,996.22
2018-06-08T02:48:57.242Z,996.18
2018-06-08T02:50:07.312Z,996.16
2018-06-08T02:51:17.386Z,996.17
2018-06-08T02:52:27.475Z,996.14
2018-06-08T02:53:37.559Z,996.09
2018-06-08T02:54:47.655Z,996.14
2018-06-08T02:55:57.734Z,996.09
2018-06-08T02:57:07.568Z,996.13
2018-06-08T02:58:17.678Z,996.13
2018-06-08T02:59:27.485Z,996.13
2018-06-08T03:00:37.614Z,996.14
2018-06-08T03:01:47.434Z,996.16
2018-06-08T03:02:57.504Z,996.13
2018-06-08T03:34:59.076Z,996.12
2018-06-08T03:36:09.160Z,996.14
2018-06-08T03:37:19.221Z,996.13
2018-06-08T03:38:29.035Z,996.14
2018-06-08T03:39:39.118Z,996.15
2018-06-08T03:40:50.232Z,996.16
2018-06-08T03:42:00.043Z,996.15
2018-06-08T03:43:09.848Z,996.14
2018-06-08T03:44:19.645Z,996.12
2018-06-08T03:45:29.699Z,996.2
2018-06-08T03:46:39.773Z,996.18
2018-06-08T03:47:49.836Z,996.2
2018-06-08T03:48:59.932Z,996.22
2018-06-08T03:50:10.107Z,996.23
2018-06-08T03:51:19.924Z,996.18
2018-06-08T03:52:30.039Z,996.23
2018-06-08T03:53:39.840Z,996.21
2018-06-08T03:54:49.652Z,996.24
2018-06-08T03:55:59.733Z,996.26
2018-06-08T03:57:09.689Z,996.26
2018-06-08T03:58:19.492Z,996.27
2018-06-08T03:59:29.569Z,996.27
2018-06-08T04:00:39.641Z,996.25
2018-06-08T04:01:49.715Z,996.27
2018-06-08T04:02:59.534Z,996.26
2018-06-08T04:04:09.622Z,996.3
2018-06-08T04:05:19.422Z,996.28
2018-06-08T04:06:29.506Z,996.29
2018-06-08T04:07:39.569Z,996.23
2018-06-08T04:08:49.637Z,996.25
2018-06-08T04:09:59.179Z,996.24
2018-06-08T04:11:09.001Z,996.22
2018-06-08T04:12:19.090Z,996.24
2018-06-08T04:13:28.930Z,996.23
2018-06-08T04:14:38.995Z,996.24
2018-06-08T04:15:49.160Z,996.24
2018-06-08T04:16:58.729Z,996.28
2018-06-08T04:18:08.825Z,996.33
2018-06-08T04:19:18.896Z,996.45
2018-06-08T04:20:28.704Z,996.48
2018-06-08T04:21:38.826Z,996.26
2018-06-08T04:22:48.888Z,996.26
2018-06-08T04:23:58.948Z,996.34
2018-06-08T04:25:08.531Z,996.43
2018-06-08T04:26:18.594Z,996.34
2018-06-08T04:27:28.679Z,996.4
2018-06-08T04:28:38.746Z,996.44
2018-06-08T04:29:48.826Z,996.45
2018-06-08T04:30:58.903Z,996.45
2018-06-08T04:32:08.968Z,996.47
2018-06-08T04:33:18.563Z,996.5
2018-06-08T04:34:28.654Z,996.51
2018-06-08T04:35:38.722Z,996.54
2018-06-08T04:36:48.528Z,996.54
2018-06-08T04:37:58.602Z,996.53
2018-06-08T04:39:08.733Z,996.52
2018-06-08T04:40:18.829Z,996.59
2018-06-08T04:41:28.589Z,996.6
2018-06-08T04:42:38.678Z,996.66
2018-06-08T04:43:48.753Z,996.69
2018-06-08T04:44:58.572Z,996.68
2018-06-08T04:46:08.660Z,996.69
2018-06-08T04:47:18.730Z,996.73
2018-06-08T04:48:28.806Z,996.72
2018-06-08T04:49:38.894Z,996.67
2018-06-08T04:50:48.970Z,996.72
2018-06-08T04:51:59.044Z,996.72
2018-06-08T04:53:09.127Z,996.72
2018-06-08T04:54:19.220Z,996.73
2018-06-08T04:55:29.305Z,996.7
2018-06-08T04:56:39.465Z,996.75
2018-06-08T04:57:49.540Z,996.77
2018-06-08T04:58:59.624Z,996.76
2018-06-08T05:00:09.704Z,996.76
2018-06-08T05:01:19.584Z,996.75
2018-06-08T05:02:29.563Z,996.76
2018-06-08T05:03:39.379Z,996.75
2018-06-08T05:04:49.466Z,996.74
2018-06-08T05:05:59.544Z,996.77
2018-06-08T05:07:09.620Z,996.76
2018-06-08T05:08:19.701Z,996.81
2018-06-08T05:09:29.774Z,996.74
2018-06-08T05:10:39.649Z,996.85
2018-06-08T05:11:49.726Z,996.8
2018-06-08T05:12:59.802Z,996.74
2018-06-08T05:14:09.639Z,996.77
2018-06-08T05:15:19.710Z,996.73
2018-06-08T05:16:29.784Z,996.72
2018-06-08T05:17:39.869Z,996.65
2018-06-08T05:18:49.708Z,996.65
2018-06-08T05:19:59.786Z,996.68
2018-06-08T05:21:09.880Z,996.8
2018-06-08T05:22:19.957Z,996.94
2018-06-08T05:23:30.060Z,997.09
2018-06-08T05:24:39.866Z,996.95
2018-06-08T05:25:49.721Z,997.01
2018-06-08T05:26:59.799Z,997.01
2018-06-08T05:28:09.890Z,996.71
2018-06-08T05:29:19.967Z,997.02
2018-06-08T05:30:29.786Z,997.11
2018-06-08T05:31:39.865Z,996.83
2018-06-08T05:32:50.207Z,997.04
2018-06-08T05:34:00.031Z,997.28
2018-06-08T05:35:10.110Z,997.32
2018-06-08T05:36:20.187Z,997.18
2018-06-08T05:37:29.796Z,997.22
2018-06-08T05:38:39.861Z,997.17
2018-06-08T05:39:49.943Z,997.03
2018-06-08T05:41:00.025Z,997.23
2018-06-08T05:42:09.581Z,997.16
2018-06-08T05:43:19.752Z,997.06
2018-06-08T05:44:29.829Z,997.03
2018-06-08T05:45:39.643Z,996.83
2018-06-08T05:46:49.721Z,996.78
2018-06-08T05:47:59.545Z,996.82
2018-06-08T05:49:09.821Z,996.79
2018-06-08T05:50:19.903Z,997.1
2018-06-08T05:51:29.990Z,996.89
2018-06-08T05:52:39.816Z,996.92
2018-06-08T05:53:49.884Z,997.1
2018-06-08T05:54:59.953Z,996.88
2018-06-08T05:56:10.047Z,997.02
2018-06-08T05:57:19.888Z,996.81
2018-06-08T05:58:29.960Z,997.04
2018-06-08T05:59:40.031Z,996.7
2018-06-08T06:00:50.288Z,996.95
2018-06-08T06:02:00.100Z,996.85
2018-06-08T06:03:10.185Z,996.84
2018-06-08T06:04:20.274Z,996.84
2018-06-08T06:05:30.359Z,996.99
2018-06-08T06:06:40.428Z,996.92
2018-06-08T06:07:50.508Z,996.82
2018-06-08T06:09:00.595Z,996.8
2018-06-08T06:10:10.673Z,996.8
2018-06-08T06:11:20.509Z,996.79
2018-06-08T06:12:30.571Z,996.79
2018-06-08T06:13:40.378Z,996.84
2018-06-08T06:14:50.469Z,996.89
2018-06-08T06:16:00.770Z,996.89
2018-06-08T06:17:10.846Z,996.9
2018-06-08T06:18:20.973Z,996.91
2018-06-08T06:19:30.775Z,996.91
2018-06-08T06:20:40.593Z,996.99
2018-06-08T06:21:50.719Z,996.94
2018-06-08T06:23:00.804Z,996.95
2018-06-08T06:24:10.639Z,996.92
2018-06-08T06:25:20.709Z,996.93
2018-06-08T06:26:30.559Z,996.98
2018-06-08T06:27:40.662Z,996.96
2018-06-08T06:28:50.477Z,996.92
2018-06-08T06:30:00.568Z,996.92
2018-06-08T06:31:10.137Z,996.92
2018-06-08T06:32:19.951Z,996.92
2018-06-08T06:33:30.307Z,996.9
2018-06-08T06:34:40.373Z,996.88
2018-06-08T06:35:50.445Z,996.94
2018-06-08T06:37:00.527Z,996.98
2018-06-08T06:38:10.605Z,996.93
2018-06-08T06:39:20.694Z,996.87
2018-06-08T06:40:30.786Z,996.88
2018-06-08T06:41:40.607Z,996.89
2018-06-08T06:42:50.671Z,996.91
2018-06-08T06:44:00.776Z,996.9
2018-06-08T06:45:10.839Z,996.93
2018-06-08T06:46:20.916Z,996.92
2018-06-08T06:47:31.024Z,996.93
2018-06-08T06:48:41.090Z,997.02
2018-06-08T06:49:51.195Z,997.04
2018-06-08T06:51:01.016Z,997.02
2018-06-08T06:52:11.099Z,997.01
2018-06-08T06:53:21.191Z,996.98
2018-06-08T06:54:31.292Z,996.95
2018-06-08T06:55:41.375Z,996.93
2018-06-08T06:56:51.181Z,996.93
2018-06-08T06:58:01.257Z,996.99
2018-06-08T06:59:11.331Z,996.99
2018-06-08T07:00:21.398Z,996.99
2018-06-08T07:01:31.490Z,996.98
2018-06-08T07:02:41.570Z,996.94
2018-06-08T07:03:51.639Z,996.9
2018-06-08T07:05:01.781Z,996.92
2018-06-08T07:06:11.881Z,996.95
2018-06-08T07:07:21.705Z,996.91
2018-06-08T07:08:31.778Z,996.9
2018-06-08T07:09:41.843Z,996.99
2018-06-08T07:10:51.662Z,996.92
2018-06-08T07:12:01.485Z,996.86
2018-06-08T07:13:11.570Z,996.83
2018-06-08T07:14:21.646Z,996.87
2018-06-08T07:15:31.732Z,996.86
2018-06-08T07:16:41.600Z,996.87
2018-06-08T07:17:51.691Z,996.9
2018-06-08T07:19:01.511Z,996.86
2018-06-08T07:20:11.616Z,996.9
2018-06-08T07:21:21.709Z,996.91
2018-06-08T07:22:31.788Z,996.91
2018-06-08T07:23:41.601Z,996.88
2018-06-08T07:24:51.729Z,996.9
2018-06-08T07:26:01.894Z,996.88
2018-06-08T07:27:11.989Z,996.86
2018-06-08T07:28:22.109Z,996.88
2018-06-08T07:29:32.216Z,996.89
2018-06-08T07:30:42.037Z,996.88
2018-06-08T07:31:52.153Z,996.89
2018-06-08T07:33:01.898Z,996.89
2018-06-08T07:34:12.052Z,996.84
2018-06-08T07:35:22.160Z,996.93
2018-06-08T07:36:32.219Z,996.91
2018-06-08T07:37:42.031Z,996.89
2018-06-08T07:38:51.848Z,996.88
2018-06-08T07:40:02.040Z,996.87
2018-06-08T07:41:12.265Z,996.87
2018-06-08T07:42:21.852Z,996.87
2018-06-08T07:43:31.927Z,996.86
2018-06-08T07:44:42.038Z,996.9
2018-06-08T07:45:51.851Z,996.91
2018-06-08T07:47:01.937Z,996.89
2018-06-08T07:48:12.053Z,996.94
2018-06-08T07:49:21.895Z,996.94
2018-06-08T07:50:31.965Z,996.89
2018-06-08T07:51:41.789Z,996.88
2018-06-08T07:52:51.659Z,996.88
2018-06-08T07:54:01.731Z,996.91
2018-06-08T07:55:11.834Z,996.88
2018-06-08T07:56:21.689Z,996.89
2018-06-08T07:57:31.760Z,996.89
2018-06-08T07:58:41.833Z,996.89
2018-06-08T07:59:51.925Z,996.93
2018-06-08T08:01:01.999Z,996.84
2018-06-08T08:02:12.208Z,996.89
2018-06-08T08:03:22.289Z,996.91
2018-06-08T08:04:31.916Z,996.85
2018-06-08T08:05:41.993Z,996.89
2018-06-08T08:06:51.818Z,996.89
2018-06-08T08:08:01.898Z,996.86
2018-06-08T08:09:12.055Z,996.94
2018-06-08T08:10:22.070Z,996.96
2018-06-08T08:11:32.162Z,996.96
2018-06-08T08:12:42.248Z,996.96
2018-06-08T08:13:52.334Z,996.93
2018-06-08T08:15:01.886Z,996.97
2018-06-08T08:16:12.014Z,996.94
2018-06-08T08:17:22.090Z,996.92
2018-06-08T08:18:31.922Z,996.96
2018-06-08T08:19:42.015Z,996.89
2018-06-08T08:20:51.589Z,996.88
2018-06-08T08:22:01.413Z,996.88
2018-06-08T08:23:11.213Z,996.91
2018-06-08T08:24:21.044Z,996.81
2018-06-08T08:25:31.140Z,996.79
2018-06-08T08:26:41.214Z,996.78
2018-06-08T08:27:51.291Z,996.87
2018-06-08T08:29:01.370Z,996.86
2018-06-08T08:30:11.485Z,996.84
2018-06-08T08:31:21.580Z,996.83
2018-06-08T08:32:31.654Z,996.83
2018-06-08T08:33:41.724Z,996.79
2018-06-08T08:34:51.821Z,996.77
2018-06-08T08:36:01.903Z,996.85
2018-06-08T08:37:12.009Z,996.78
2018-06-08T08:38:22.092Z,996.75
2018-06-08T08:39:32.158Z,996.87
2018-06-08T08:40:42.384Z,996.82
2018-06-08T08:41:52.471Z,996.83
2018-06-08T08:43:02.579Z,996.84
2018-06-08T08:44:12.641Z,996.77
2018-06-08T08:45:22.751Z,996.8
2018-06-08T08:46:32.844Z,996.76
2018-06-08T08:47:42.935Z,996.73
2018-06-08T08:48:53.023Z,996.81
2018-06-08T08:50:03.148Z,996.75
2018-06-08T08:51:13.006Z,996.78
2018-06-08T08:52:23.107Z,996.72
2018-06-08T08:53:33.175Z,996.68
2018-06-08T08:54:43.241Z,996.71
2018-06-08T08:55:53.063Z,996.68
2018-06-08T08:57:03.226Z,996.68
2018-06-08T08:58:12.921Z,996.78
2018-06-08T08:59:22.473Z,996.76
2018-06-08T09:00:32.584Z,996.69
2018-06-08T09:01:42.669Z,996.69
2018-06-08T09:02:52.807Z,996.7
2018-06-08T09:04:02.633Z,996.65
2018-06-08T09:05:12.717Z,996.58
2018-06-08T09:06:22.789Z,996.68
2018-06-08T09:07:32.934Z,996.63
2018-06-08T09:08:43.065Z,996.63
2018-06-08T09:09:53.202Z,996.53
2018-06-08T09:11:03.340Z,996.53
2018-06-08T09:12:13.173Z,996.57
2018-06-08T09:13:23.266Z,996.55
2018-06-08T09:14:33.342Z,996.53
2018-06-08T09:15:43.419Z,996.56
2018-06-08T09:16:53.522Z,996.56
2018-06-08T09:18:03.619Z,996.55
2018-06-08T09:19:13.181Z,996.56
2018-06-08T09:20:23.304Z,996.5
2018-06-08T09:21:33.394Z,996.42
2018-06-08T09:22:43.241Z,996.48
2018-06-08T09:23:53.323Z,996.42
2018-06-08T09:25:03.139Z,996.44
2018-06-08T09:26:13.293Z,996.41
2018-06-08T09:27:23.395Z,996.42
2018-06-08T09:28:33.599Z,996.36
2018-06-08T09:29:43.689Z,996.4
2018-06-08T09:30:53.515Z,996.33
2018-06-08T09:32:03.401Z,996.38
2018-06-08T09:33:13.559Z,996.31
2018-06-08T09:34:23.718Z,996.35
2018-06-08T09:35:33.788Z,996.41
2018-06-08T09:36:43.896Z,996.31
2018-06-08T09:37:54.028Z,996.33
2018-06-08T09:39:04.134Z,996.28
2018-06-08T09:40:13.711Z,996.27
2018-06-08T09:41:23.804Z,996.28
2018-06-08T09:42:33.614Z,996.26
2018-06-08T09:43:43.701Z,996.21
2018-06-08T09:44:53.786Z,996.26
2018-06-08T09:46:03.885Z,996.2
2018-06-08T09:47:14.169Z,996.21
2018-06-08T09:48:24.256Z,996.2
2018-06-08T09:49:34.336Z,996.17
2018-06-08T09:50:44.278Z,996.16
2018-06-08T09:51:54.379Z,996.19
2018-06-08T09:53:04.203Z,996.13
2018-06-08T09:54:14.281Z,996.15
2018-06-08T09:55:24.381Z,996.15
2018-06-08T09:56:34.487Z,996.13
2018-06-08T09:57:44.578Z,996.14
2018-06-08T09:58:54.666Z,996.11
2018-06-08T10:00:04.802Z,996.13
2018-06-08T10:01:14.904Z,996.06
2018-06-08T10:02:24.980Z,996.02
2018-06-08T10:03:35.078Z,996.01
2018-06-08T10:04:45.175Z,995.96
2018-06-08T10:05:55.246Z,995.96
2018-06-08T10:07:05.324Z,995.94
2018-06-08T10:08:15.421Z,995.99
2018-06-08T10:09:25.253Z,996
2018-06-08T10:10:35.083Z,995.99
2018-06-08T10:11:45.166Z,995.97
2018-06-08T10:12:55.301Z,995.97
2018-06-08T10:14:05.373Z,995.95
2018-06-08T10:15:15.203Z,995.97
2018-06-08T10:16:25.036Z,996.02
2018-06-08T10:17:35.202Z,996.03
2018-06-08T10:18:45.275Z,995.92
2018-06-08T10:19:55.101Z,995.88
2018-06-08T10:21:05.203Z,995.99
2018-06-08T10:22:15.309Z,995.98
2018-06-08T10:23:25.401Z,995.92
2018-06-08T10:24:35.272Z,996
2018-06-08T10:25:45.349Z,995.95
2018-06-08T10:26:55.454Z,995.92
2018-06-08T10:28:05.551Z,995.87
2018-06-08T10:29:15.735Z,995.84
2018-06-08T10:30:25.838Z,995.89
2018-06-08T10:31:35.916Z,995.9
2018-06-08T10:32:46.008Z,995.86
2018-06-08T10:33:56.143Z,995.95
2018-06-08T10:35:06.359Z,995.9
2018-06-08T10:36:16.445Z,995.92
2018-06-08T10:37:26.532Z,995.95
2018-06-08T10:38:36.345Z,995.9
2018-06-08T10:39:46.178Z,995.91
2018-06-08T10:40:56.422Z,995.92
2018-06-08T10:42:06.539Z,995.89
2018-06-08T10:43:16.631Z,995.83
2018-06-08T10:44:26.470Z,995.81
2018-06-08T10:45:36.558Z,995.89
2018-06-08T10:46:46.661Z,995.88
2018-06-08T10:47:56.817Z,995.83
2018-06-08T10:49:06.420Z,995.86
2018-06-08T10:50:16.249Z,995.83
2018-06-08T10:51:26.083Z,995.86
2018-06-08T10:52:36.191Z,995.87
2018-06-08T10:53:46.281Z,995.85
2018-06-08T10:54:56.379Z,995.76
2018-06-08T10:56:06.510Z,995.74
2018-06-08T10:57:16.063Z,995.73
2018-06-08T10:58:25.925Z,995.74
2018-06-08T10:59:36.029Z,995.76
2018-06-08T11:00:46.129Z,995.85
2018-06-08T11:01:56.220Z,995.72
2018-06-08T11:03:06.320Z,995.7
2018-06-08T11:04:16.170Z,995.8
2018-06-08T11:05:26.243Z,995.78
2018-06-08T11:06:36.325Z,995.78
2018-06-08T11:07:46.414Z,995.75
2018-06-08T11:08:56.508Z,995.75
2018-06-08T11:10:06.585Z,995.76
2018-06-08T11:11:16.734Z,995.76
2018-06-08T11:12:26.548Z,995.77
2018-06-08T11:13:36.633Z,995.71
2018-06-08T11:14:46.727Z,995.72
2018-06-08T11:15:56.278Z,995.67
2018-06-08T11:17:06.128Z,995.68
2018-06-08T11:18:16.220Z,995.64
2018-06-08T11:19:26.302Z,995.56
2018-06-08T11:20:36.398Z,995.54
2018-06-08T11:21:46.498Z,995.56
2018-06-08T11:22:56.342Z,995.53
2018-06-08T11:24:06.421Z,995.55
2018-06-08T11:25:16.498Z,995.56
2018-06-08T11:26:26.586Z,995.51
2018-06-08T11:27:36.676Z,995.59
2018-06-08T11:28:46.484Z,995.51
2018-06-08T11:29:56.314Z,995.5
2018-06-08T11:31:06.401Z,995.51
2018-06-08T11:32:16.494Z,995.5
2018-06-08T11:33:26.306Z,995.44
2018-06-08T11:34:36.384Z,995.49
2018-06-08T11:35:46.513Z,995.48
2018-06-08T11:36:56.083Z,995.52
2018-06-08T11:38:05.907Z,995.45
2018-06-08T11:39:16.083Z,995.39
2018-06-08T11:40:26.197Z,995.39
2018-06-08T11:41:36.029Z,995.36
2018-06-08T11:42:46.107Z,995.37
2018-06-08T11:43:56.191Z,995.36
2018-06-08T11:45:06.019Z,995.3
2018-06-08T11:46:15.639Z,995.32
2018-06-08T11:47:25.737Z,995.3
2018-06-08T11:48:35.846Z,995.36
2018-06-08T11:49:45.689Z,995.36
2018-06-08T11:50:55.770Z,995.29
2018-06-08T11:52:05.640Z,995.35
2018-06-08T11:53:15.480Z,995.42
2018-06-08T11:54:25.509Z,995.36
2018-06-08T11:55:35.624Z,995.31
2018-06-08T11:56:45.744Z,995.22
2018-06-08T11:57:55.843Z,995.2
2018-06-08T11:59:05.673Z,995.24
2018-06-08T12:00:15.262Z,995.3
2018-06-08T12:01:25.175Z,995.23
2018-06-08T12:02:35.004Z,995.26
2018-06-08T12:03:44.837Z,995.2
2018-06-08T12:04:54.943Z,995.21
2018-06-08T12:06:05.013Z,995.19
2018-06-08T12:07:14.840Z,995.18
2018-06-08T12:08:24.661Z,995.17
2018-06-08T12:09:34.745Z,995.11
2018-06-08T12:10:44.581Z,995.13
2018-06-08T12:11:54.400Z,995.09
2018-06-08T12:13:04.234Z,995.2
2018-06-08T12:14:14.346Z,995.2
2018-06-08T12:15:24.432Z,995.22
2018-06-08T12:16:34.508Z,995.19
2018-06-08T12:17:44.611Z,995.14
2018-06-08T12:18:55.234Z,995.14
2018-06-08T12:20:06.723Z,995.14
2018-06-08T12:21:16.547Z,995.19
2018-06-08T12:22:26.651Z,995.18
2018-06-08T12:23:36.766Z,995.24
2018-06-08T12:24:46.906Z,995.2
2018-06-08T12:25:56.750Z,995.18
2018-06-08T12:27:06.851Z,995.14
2018-06-08T12:28:16.951Z,995.14
2018-06-08T12:29:27.041Z,995.15
2018-06-08T12:30:37.199Z,995.18
2018-06-08T12:31:47.244Z,995.15
2018-06-08T12:32:57.341Z,995.08
2018-06-08T12:34:07.451Z,995.07
2018-06-08T12:35:17.552Z,995.05
2018-06-08T12:36:27.375Z,995.04
2018-06-08T12:37:37.483Z,995
2018-06-08T12:38:47.608Z,995.01
2018-06-08T12:39:57.706Z,995.05
2018-06-08T12:41:07.824Z,995.05
2018-06-08T12:42:17.972Z,995
2018-06-08T12:43:28.084Z,995.06
2018-06-08T12:44:38.619Z,995.05
2018-06-08T12:45:48.732Z,995.03
2018-06-08T12:46:58.810Z,995.07
2018-06-08T12:48:08.968Z,995.02
2018-06-08T12:49:19.069Z,994.94
2018-06-08T12:50:29.216Z,994.91
2018-06-08T12:51:39.068Z,994.92
2018-06-08T12:52:48.977Z,994.92
2018-06-08T12:53:58.810Z,994.89
2018-06-08T12:55:08.921Z,994.89
2018-06-08T12:56:18.773Z,994.84
2018-06-08T12:57:28.919Z,994.79
2018-06-08T12:58:39.019Z,994.84
2018-06-08T12:59:49.130Z,994.85
2018-06-08T13:00:58.977Z,994.82
2018-06-08T13:02:09.081Z,994.84
2018-06-08T13:03:19.197Z,994.79
2018-06-08T13:04:29.285Z,994.83
2018-06-08T13:05:39.126Z,994.84
2018-06-08T13:06:48.938Z,994.84
2018-06-08T13:07:59.027Z,994.8
2018-06-08T13:09:09.187Z,994.84
2018-06-08T13:10:18.512Z,994.77
2018-06-08T13:11:28.583Z,994.78
2018-06-08T13:12:38.683Z,994.74
2018-06-08T13:13:48.778Z,994.78
2018-06-08T13:14:58.932Z,994.75
2018-06-08T13:16:08.844Z,994.7
2018-06-08T13:17:18.949Z,994.71
2018-06-08T13:18:29.042Z,994.65
2018-06-08T13:19:38.879Z,994.74
2018-06-08T13:20:48.706Z,994.74
2018-06-08T13:21:58.819Z,994.72
2018-06-08T13:23:08.928Z,994.73
2018-06-08T13:24:19.058Z,994.68
2018-06-08T13:25:29.295Z,994.69
2018-06-08T13:26:39.440Z,994.65
2018-06-08T13:27:49.539Z,994.63
2018-06-08T13:28:59.359Z,994.61
2018-06-08T13:30:09.185Z,994.53
2018-06-08T13:31:19.007Z,994.59
2018-06-08T13:32:30.128Z,994.66
2018-06-08T13:33:40.239Z,994.59
2018-06-08T13:34:50.098Z,994.55
2018-06-08T13:35:59.404Z,994.54
2018-06-08T13:37:08.980Z,994.53
2018-06-08T13:38:18.828Z,994.5
2018-06-08T13:39:28.663Z,994.53
2018-06-08T13:40:38.948Z,994.54
2018-06-08T13:41:49.068Z,994.53
2018-06-08T13:42:59.152Z,994.52
2018-06-08T13:44:08.993Z,994.52
2018-06-08T13:45:19.102Z,994.49
2018-06-08T13:46:29.202Z,994.49
2018-06-08T13:47:39.299Z,994.44
2018-06-08T13:48:49.392Z,994.48
2018-06-08T13:49:59.559Z,994.45
2018-06-08T13:51:09.630Z,994.47
2018-06-08T13:52:19.720Z,994.47
2018-06-08T13:53:29.856Z,994.43
2018-06-08T13:54:39.976Z,994.44
2018-06-08T13:55:50.121Z,994.4
2018-06-08T13:56:59.948Z,994.4
2018-06-08T13:58:10.076Z,994.4
2018-06-08T13:59:19.926Z,994.41
2018-06-08T14:00:30.035Z,994.41
2018-06-08T14:01:39.864Z,994.32
2018-06-08T14:02:49.973Z,994.31
2018-06-08T14:03:59.804Z,994.34
2018-06-08T14:05:09.362Z,994.31
2018-06-08T14:06:19.191Z,994.33
2018-06-08T14:07:29.319Z,994.31
2018-06-08T14:08:39.431Z,994.29
2018-06-08T14:09:49.515Z,994.19
2018-06-08T14:10:59.347Z,994.23
2018-06-08T14:12:09.447Z,994.17
2018-06-08T14:13:19.557Z,994.11
2018-06-08T14:14:29.659Z,994.13
2018-06-08T14:15:39.748Z,994.08
2018-06-08T14:16:49.865Z,994.06
2018-06-08T14:17:59.976Z,994.1
2018-06-08T14:19:10.117Z,994.01
2018-06-08T14:20:20.244Z,994.07
2018-06-08T14:21:30.342Z,994.03
2018-06-08T14:22:40.437Z,994.02
2018-06-08T14:23:50.551Z,994
2018-06-08T14:25:00.664Z,993.96
2018-06-08T14:26:10.744Z,993.93
2018-06-08T14:27:20.588Z,993.87
2018-06-08T14:28:30.504Z,993.86
2018-06-08T14:29:40.610Z,993.79
2018-06-08T14:30:50.696Z,993.84
2018-06-08T14:32:00.529Z,993.77
2018-06-08T14:33:10.624Z,993.77
2018-06-08T14:34:20.464Z,993.77
2018-06-08T14:35:30.562Z,993.77
2018-06-08T14:36:40.718Z,993.75
2018-06-08T14:37:50.584Z,993.72
2018-06-08T14:39:00.421Z,993.69
2018-06-08T14:40:10.518Z,993.68
2018-06-08T14:41:20.613Z,993.62
2018-06-08T14:42:30.728Z,993.64
2018-06-08T14:43:40.555Z,993.63
2018-06-08T14:44:50.668Z,993.59
2018-06-08T14:46:00.781Z,993.62
2018-06-08T14:47:10.678Z,993.63
2018-06-08T14:48:20.910Z,993.58
2018-06-08T14:49:31.176Z,993.56
2018-06-08T14:50:41.263Z,993.52
2018-06-08T14:51:51.166Z,993.49
2018-06-08T14:53:01.254Z,993.43
2018-06-08T14:54:11.152Z,993.53
2018-06-08T14:55:21.237Z,993.53
2018-06-08T14:56:31.380Z,993.51
2018-06-08T14:57:41.220Z,993.42
2018-06-08T14:58:51.070Z,993.44
2018-06-08T15:00:00.807Z,993.41
2018-06-08T15:01:10.937Z,993.36
2018-06-08T15:02:21.047Z,993.39
2018-06-08T15:03:31.143Z,993.32
2018-06-08T15:04:41.272Z,993.35
2018-06-08T15:05:51.186Z,993.4
2018-06-08T15:07:01.024Z,993.4